createdAt,value
2019-02-21T00:04:57.852Z,3.30
2019-02-21T00:07:26.354Z,3.30
2019-02-21T00:09:54.834Z,3.20
2019-02-21T00:12:23.285Z,2.90
2019-02-21T00:14:51.763Z,3.00
2019-02-21T00:17:20.348Z,3.00
2019-02-21T00:19:48.829Z,3.00
2019-02-21T00:22:17.310Z,3.30
2019-02-21T00:24:45.771Z,3.00
2019-02-21T00:27:14.309Z,3.00
2019-02-21T00:29:42.824Z,2.90
2019-02-21T00:32:11.278Z,2.80
2019-02-21T00:34:39.766Z,3.10
2019-02-21T00:37:08.249Z,3.00
2019-02-21T00:42:04.921Z,3.10
2019-02-21T00:44:33.474Z,3.10
2019-02-21T00:47:01.935Z,3.10
2019-02-21T00:49:30.482Z,3.10
2019-02-21T00:51:58.924Z,3.20
2019-02-21T00:54:27.470Z,3.20
2019-02-21T00:56:55.922Z,3.20
2019-02-21T00:59:24.413Z,3.20
2019-02-21T01:01:52.857Z,3.30
2019-02-21T01:04:21.301Z,3.40
2019-02-21T01:06:49.766Z,3.30
2019-02-21T01:09:18.305Z,3.30
2019-02-21T01:11:46.743Z,3.20
2019-02-21T01:14:15.205Z,3.10
2019-02-21T01:16:43.685Z,3.00
2019-02-21T01:19:12.139Z,2.80
2019-02-21T01:21:40.689Z,3.00
2019-02-21T01:24:09.129Z,3.00
2019-02-21T01:26:37.609Z,2.90
2019-02-21T01:29:06.137Z,2.90
2019-02-21T01:31:34.621Z,2.90
2019-02-21T01:34:03.071Z,3.00
2019-02-21T01:36:31.564Z,3.10
2019-02-21T01:39:00.075Z,3.00
2019-02-21T01:41:28.553Z,3.10
2019-02-21T01:43:57.035Z,3.20
2019-02-21T01:46:25.476Z,3.20
2019-02-21T01:48:53.994Z,3.20
2019-02-21T01:51:22.474Z,3.30
2019-02-21T01:53:50.993Z,3.20
2019-02-21T01:56:19.474Z,3.20
2019-02-21T01:58:47.913Z,3.30
2019-02-21T02:01:16.391Z,3.30
2019-02-21T02:03:44.833Z,3.30
2019-02-21T02:06:13.271Z,3.30
2019-02-21T02:08:41.757Z,3.20
2019-02-21T02:11:10.385Z,3.30
2019-02-21T02:13:38.861Z,3.20
2019-02-21T02:16:07.337Z,3.10
2019-02-21T02:18:35.785Z,3.10
2019-02-21T02:21:04.259Z,3.10
2019-02-21T02:23:32.726Z,3.00
2019-02-21T02:26:01.201Z,3.00
2019-02-21T02:28:29.650Z,3.10
2019-02-21T02:30:58.134Z,3.20
2019-02-21T02:33:26.671Z,3.20
2019-02-21T02:35:55.118Z,3.20
2019-02-21T02:38:23.677Z,3.20
2019-02-21T02:40:52.151Z,3.20
2019-02-21T02:43:20.598Z,3.30
2019-02-21T02:45:49.146Z,3.50
2019-02-21T02:48:17.619Z,3.60
2019-02-21T02:50:46.066Z,3.50
2019-02-21T02:53:14.549Z,3.30
2019-02-21T02:55:43.039Z,3.20
2019-02-21T02:58:11.487Z,3.20
2019-02-21T03:00:39.930Z,3.20
2019-02-21T03:03:08.409Z,3.30
2019-02-21T03:05:36.879Z,3.30
2019-02-21T03:08:05.428Z,3.60
2019-02-21T03:10:33.948Z,3.40
2019-02-21T03:13:02.401Z,3.50
2019-02-21T03:15:30.881Z,3.60
2019-02-21T03:17:59.379Z,3.60
2019-02-21T03:20:27.926Z,3.60
2019-02-21T03:22:56.374Z,3.50
2019-02-21T03:25:24.853Z,3.40
2019-02-21T03:27:53.378Z,3.30
2019-02-21T03:30:21.865Z,3.10
2019-02-21T03:32:50.428Z,3.00
2019-02-21T03:35:18.877Z,3.00
2019-02-21T03:37:47.440Z,3.20
2019-02-21T03:40:16.024Z,3.30
2019-02-21T03:42:44.500Z,3.00
2019-02-21T03:45:14.593Z,3.00
2019-02-21T03:47:43.144Z,3.00
2019-02-21T03:50:12.130Z,2.70
2019-02-21T03:52:40.602Z,2.50
2019-02-21T03:57:38.004Z,2.60
2019-02-21T04:00:09.005Z,2.70
2019-02-21T04:02:37.561Z,2.70
2019-02-21T04:05:07.655Z,2.60
2019-02-21T04:07:36.124Z,2.70
2019-02-21T04:10:07.119Z,2.70
2019-02-21T04:12:35.595Z,2.50
2019-02-21T04:15:06.071Z,2.80
2019-02-21T04:17:34.516Z,2.80
2019-02-21T04:20:03.636Z,3.00
2019-02-21T04:22:32.198Z,3.00
2019-02-21T04:25:00.646Z,3.00
2019-02-21T04:27:29.200Z,2.70
2019-02-21T04:29:57.741Z,3.00
2019-02-21T04:32:26.186Z,3.00
2019-02-21T04:34:54.629Z,3.00
2019-02-21T04:37:23.111Z,3.10
2019-02-21T04:39:51.565Z,3.00
2019-02-21T04:42:20.052Z,2.80
2019-02-21T04:44:48.597Z,3.00
2019-02-21T04:47:17.083Z,2.90
2019-02-21T04:49:45.536Z,3.00
2019-02-21T04:52:14.084Z,2.80
2019-02-21T04:54:42.565Z,3.00
2019-02-21T04:57:11.038Z,3.00
2019-02-21T04:59:39.502Z,2.90
2019-02-21T05:02:08.023Z,3.00
2019-02-21T05:04:36.624Z,3.10
2019-02-21T05:07:05.071Z,3.30
2019-02-21T05:09:33.558Z,3.20
2019-02-21T05:12:02.109Z,3.20
2019-02-21T05:14:30.629Z,3.10
2019-02-21T05:17:00.739Z,2.90
2019-02-21T05:19:29.295Z,2.70
2019-02-21T05:21:57.815Z,2.60
2019-02-21T05:24:26.371Z,2.70
2019-02-21T05:26:59.221Z,2.60
2019-02-21T05:29:27.671Z,2.70
2019-02-21T05:31:57.826Z,2.50
2019-02-21T05:34:36.724Z,2.30
2019-02-21T05:37:21.882Z,2.30
2019-02-21T05:39:54.816Z,2.00
2019-02-21T05:42:30.565Z,2.10
2019-02-21T05:45:18.836Z,2.10
2019-02-21T05:50:30.217Z,1.70
2019-02-21T05:53:06.110Z,1.70
2019-02-21T05:55:36.231Z,1.50
2019-02-21T05:58:09.282Z,1.60
2019-02-21T06:00:48.033Z,3.70
2019-02-21T06:03:18.205Z,1.50
2019-02-21T06:05:50.943Z,1.30
2019-02-21T06:11:05.326Z,1.40
2019-02-21T06:13:38.410Z,1.10
2019-02-21T06:16:25.063Z,1.10
2019-02-21T06:18:58.441Z,1.10
2019-02-21T06:21:31.286Z,0.90
2019-02-21T06:24:07.365Z,1.00
2019-02-21T06:26:39.427Z,1.00
2019-02-21T06:29:22.592Z,0.80
2019-02-21T06:31:51.686Z,1.00
2019-02-21T06:34:20.176Z,2.70
2019-02-21T06:36:48.695Z,0.90
2019-02-21T06:39:17.139Z,1.10
2019-02-21T06:41:45.614Z,0.90
2019-02-21T06:44:14.065Z,1.00
2019-02-21T06:46:42.548Z,1.00
2019-02-21T06:49:11.028Z,1.00
2019-02-21T06:51:39.506Z,1.10
2019-02-21T06:54:07.972Z,1.30
2019-02-21T06:56:36.464Z,1.40
2019-02-21T06:59:04.916Z,1.90
2019-02-21T07:01:33.384Z,1.70
2019-02-21T07:04:02.058Z,2.20
2019-02-21T07:06:32.160Z,2.20
2019-02-21T07:09:00.734Z,2.50
2019-02-21T07:11:29.192Z,6.30
2019-02-21T07:13:57.732Z,2.80
2019-02-21T07:16:26.279Z,3.30
2019-02-21T07:18:54.718Z,2.70
2019-02-21T07:21:23.203Z,2.70
2019-02-21T07:23:51.687Z,2.80
2019-02-21T07:26:20.156Z,2.70
2019-02-21T07:28:48.639Z,2.90
2019-02-21T07:31:27.793Z,3.10
2019-02-21T07:33:48.366Z,3.00
2019-02-21T07:36:17.072Z,3.20
2019-02-21T07:38:45.515Z,3.20
2019-02-21T07:41:14.246Z,3.40
2019-02-21T07:43:42.805Z,3.50
2019-02-21T07:46:11.397Z,3.60
2019-02-21T07:48:39.854Z,3.70
2019-02-21T07:51:08.330Z,3.80
2019-02-21T07:53:36.772Z,4.00
2019-02-21T07:56:05.523Z,4.10
2019-02-21T07:58:34.046Z,4.50
2019-02-21T08:01:02.595Z,4.40
2019-02-21T08:03:43.433Z,4.60
2019-02-21T08:06:01.226Z,4.80
2019-02-21T08:08:32.279Z,4.90
2019-02-21T08:10:59.949Z,5.00
2019-02-21T08:13:28.511Z,5.10
2019-02-21T08:15:57.036Z,5.20
2019-02-21T08:18:25.530Z,5.20
2019-02-21T08:20:54.071Z,5.00
2019-02-21T08:23:22.569Z,5.10
2019-02-21T08:25:51.087Z,5.20
2019-02-21T08:28:19.585Z,5.30
2019-02-21T08:30:48.133Z,5.40
2019-02-21T08:33:21.406Z,5.60
2019-02-21T08:35:49.919Z,5.90
2019-02-21T08:38:18.364Z,6.10
2019-02-21T08:40:46.931Z,6.40
2019-02-21T08:43:15.374Z,6.70
2019-02-21T08:45:43.933Z,6.90
2019-02-21T08:48:13.509Z,7.20
2019-02-21T08:50:42.241Z,7.70
2019-02-21T08:53:12.956Z,7.80
2019-02-21T08:55:51.375Z,8.00
2019-02-21T08:58:22.539Z,8.40
2019-02-21T09:00:50.989Z,8.70
2019-02-21T09:03:19.554Z,8.70
2019-02-21T09:05:47.998Z,9.10
2019-02-21T09:08:16.893Z,9.60
2019-02-21T09:10:45.520Z,9.80
2019-02-21T09:13:14.113Z,10.20
2019-02-21T09:15:42.569Z,10.70
2019-02-21T09:18:11.058Z,10.90
2019-02-21T09:20:39.638Z,11.40
2019-02-21T09:23:08.189Z,11.80
2019-02-21T09:25:36.739Z,12.00
2019-02-21T09:28:05.244Z,12.30
2019-02-21T09:30:33.880Z,12.40
2019-02-21T09:33:02.408Z,12.40
2019-02-21T09:35:31.014Z,12.20
2019-02-21T09:37:59.497Z,12.00
2019-02-21T09:40:28.631Z,11.70
2019-02-21T09:42:57.449Z,12.10
2019-02-21T09:45:26.143Z,12.40
2019-02-21T09:47:54.654Z,11.80
2019-02-21T09:50:23.147Z,12.40
2019-02-21T09:52:51.622Z,12.70
2019-02-21T09:55:20.118Z,13.20
2019-02-21T09:57:48.569Z,13.40
2019-02-21T10:00:19.115Z,13.70
2019-02-21T10:02:47.662Z,13.80
2019-02-21T10:05:16.223Z,13.90
2019-02-21T10:07:44.752Z,14.10
2019-02-21T10:10:18.066Z,14.10
2019-02-21T10:12:46.662Z,14.10
2019-02-21T10:15:16.553Z,13.50
2019-02-21T10:17:45.179Z,12.80
2019-02-21T10:20:18.554Z,12.30
2019-02-21T10:22:47.043Z,11.80
2019-02-21T10:25:23.084Z,11.60
2019-02-21T10:27:51.401Z,11.80
2019-02-21T10:30:21.698Z,11.60
2019-02-21T10:32:50.142Z,11.50
2019-02-21T10:35:18.720Z,11.40
2019-02-21T10:40:16.420Z,11.70
2019-02-21T10:45:16.212Z,11.50
2019-02-21T10:47:44.670Z,11.80
2019-02-21T10:50:16.308Z,12.40
2019-02-21T10:52:44.993Z,13.60
2019-02-21T10:55:14.108Z,13.60
2019-02-21T10:57:45.178Z,13.60
2019-02-21T11:00:22.358Z,12.90
2019-02-21T11:02:50.910Z,13.20
2019-02-21T11:05:19.394Z,13.20
2019-02-21T11:07:47.837Z,13.50
2019-02-21T11:10:19.519Z,13.50
2019-02-21T11:12:47.967Z,13.70
2019-02-21T11:15:18.799Z,14.10
2019-02-21T11:17:47.319Z,14.20
2019-02-21T11:20:17.550Z,14.20
2019-02-21T11:22:46.078Z,14.20
2019-02-21T11:25:14.563Z,14.50
2019-02-21T11:27:43.053Z,14.50
2019-02-21T11:30:16.582Z,14.60
2019-02-21T11:32:45.133Z,15.00
2019-02-21T11:35:14.329Z,15.10
2019-02-21T11:37:46.540Z,15.70
2019-02-21T11:40:17.818Z,15.70
2019-02-21T11:42:46.522Z,15.10
2019-02-21T11:45:21.252Z,14.30
2019-02-21T11:47:49.743Z,14.60
2019-02-21T11:50:18.927Z,13.60
2019-02-21T11:52:47.549Z,13.00
2019-02-21T11:55:21.901Z,12.80
2019-02-21T11:57:50.693Z,12.80
2019-02-21T12:00:21.351Z,12.90
2019-02-21T12:02:51.149Z,12.50
2019-02-21T12:05:30.348Z,12.50
2019-02-21T12:07:54.497Z,12.70
2019-02-21T12:10:23.090Z,12.60
2019-02-21T12:12:54.264Z,12.90
2019-02-21T12:15:22.881Z,12.50
2019-02-21T12:17:51.468Z,12.40
2019-02-21T12:20:20.621Z,12.40
2019-02-21T12:23:00.272Z,12.20
2019-02-21T12:25:28.753Z,12.30
2019-02-21T12:27:57.192Z,12.30
2019-02-21T12:30:25.723Z,12.20
2019-02-21T12:32:54.623Z,12.10
2019-02-21T12:37:53.053Z,12.00
2019-02-21T12:40:24.315Z,11.80
2019-02-21T12:45:25.863Z,11.70
2019-02-21T12:47:54.489Z,11.80
2019-02-21T12:50:23.235Z,11.90
2019-02-21T12:52:51.722Z,12.40
2019-02-21T12:55:28.250Z,12.00
2019-02-21T12:57:52.150Z,11.90
2019-02-21T13:00:21.727Z,11.70
2019-02-21T13:02:51.771Z,11.90
2019-02-21T13:05:40.087Z,12.00
2019-02-21T13:07:59.245Z,11.80
2019-02-21T13:10:27.822Z,11.70
2019-02-21T13:12:56.275Z,12.00
2019-02-21T13:15:24.851Z,11.90
2019-02-21T13:17:53.331Z,12.30
2019-02-21T13:20:22.154Z,12.20
2019-02-21T13:22:50.689Z,12.20
2019-02-21T13:25:19.766Z,12.50
2019-02-21T13:27:48.360Z,12.20
2019-02-21T13:30:17.818Z,12.40
2019-02-21T13:32:46.400Z,12.20
2019-02-21T13:35:15.288Z,12.30
2019-02-21T13:37:43.775Z,12.30
2019-02-21T13:40:14.172Z,12.30
2019-02-21T13:42:42.856Z,12.30
2019-02-21T13:45:13.662Z,12.50
2019-02-21T13:47:42.233Z,12.70
2019-02-21T13:50:17.653Z,12.50
2019-02-21T13:52:46.146Z,12.50
2019-02-21T13:55:14.756Z,12.80
2019-02-21T13:57:44.900Z,12.60
2019-02-21T14:00:19.210Z,12.20
2019-02-21T14:02:47.655Z,12.50
2019-02-21T14:05:16.156Z,11.70
2019-02-21T14:07:44.641Z,12.40
2019-02-21T14:10:14.456Z,12.10
2019-02-21T14:12:43.124Z,12.10
2019-02-21T14:15:25.730Z,11.90
2019-02-21T14:17:54.207Z,12.00
2019-02-21T14:20:22.777Z,11.90
2019-02-21T14:22:51.311Z,11.90
2019-02-21T14:25:19.874Z,11.90
2019-02-21T14:27:48.474Z,11.70
2019-02-21T14:30:19.268Z,11.90
2019-02-21T14:32:47.803Z,12.00
2019-02-21T14:35:16.546Z,11.90
2019-02-21T14:37:45.161Z,11.90
2019-02-21T14:40:15.186Z,11.90
2019-02-21T14:42:44.004Z,11.80
2019-02-21T14:45:21.213Z,11.80
2019-02-21T14:47:50.431Z,11.80
2019-02-21T14:50:22.689Z,11.90
2019-02-21T14:52:51.187Z,12.00
2019-02-21T14:55:19.786Z,11.90
2019-02-21T14:57:48.508Z,11.60
2019-02-21T15:00:21.849Z,11.90
2019-02-21T15:02:53.363Z,11.80
2019-02-21T15:05:21.941Z,11.60
2019-02-21T15:07:50.473Z,11.60
2019-02-21T15:10:19.069Z,11.60
2019-02-21T15:12:47.681Z,11.70
2019-02-21T15:15:27.549Z,11.60
2019-02-21T15:18:07.008Z,11.70
2019-02-21T15:20:36.312Z,11.60
2019-02-21T15:22:56.599Z,11.60
2019-02-21T15:25:26.909Z,12.00
2019-02-21T15:27:55.495Z,11.60
2019-02-21T15:30:25.561Z,11.70
2019-02-21T15:32:54.147Z,11.90
2019-02-21T15:35:22.707Z,11.60
2019-02-21T15:37:51.238Z,11.40
2019-02-21T15:40:19.788Z,11.40
2019-02-21T15:42:48.350Z,11.60
2019-02-21T15:45:23.607Z,11.60
2019-02-21T15:47:50.209Z,11.60
2019-02-21T15:50:20.081Z,11.60
2019-02-21T15:52:48.999Z,11.50
2019-02-21T15:55:19.113Z,11.40
2019-02-21T15:57:47.782Z,11.40
2019-02-21T16:00:18.243Z,11.30
2019-02-21T16:02:46.725Z,11.30
2019-02-21T16:05:15.366Z,11.10
2019-02-21T16:07:44.025Z,11.40
2019-02-21T16:10:15.328Z,11.20
2019-02-21T16:15:16.218Z,11.20
2019-02-21T16:17:44.187Z,11.20
2019-02-21T16:20:17.192Z,11.30
2019-02-21T16:22:45.972Z,11.20
2019-02-21T16:25:20.206Z,11.10
2019-02-21T16:30:17.033Z,11.20
2019-02-21T16:32:45.642Z,11.40
2019-02-21T16:37:42.846Z,11.00
2019-02-21T16:40:33.731Z,10.90
2019-02-21T16:43:02.363Z,10.80
2019-02-21T16:48:03.635Z,11.00
2019-02-21T16:55:30.144Z,10.80
2019-02-21T17:00:47.526Z,10.70
2019-02-21T17:03:01.942Z,10.70
2019-02-21T17:08:02.453Z,10.60
2019-02-21T17:10:33.125Z,10.60
2019-02-21T17:13:02.451Z,10.40
2019-02-21T17:18:03.738Z,10.10
2019-02-21T17:20:33.111Z,10.10
2019-02-21T17:23:03.167Z,9.80
2019-02-21T17:30:30.324Z,9.50
2019-02-21T17:32:58.910Z,9.70
2019-02-21T17:35:27.579Z,9.70
2019-02-21T17:37:56.151Z,9.60
2019-02-21T17:40:25.388Z,9.60
2019-02-21T17:50:20.347Z,9.90
2019-02-21T17:55:19.383Z,9.60
2019-02-21T17:57:48.000Z,9.60
2019-02-21T18:02:51.113Z,9.60
2019-02-21T18:05:19.594Z,9.50
2019-02-21T18:10:19.242Z,9.40
2019-02-21T18:12:47.858Z,9.30
2019-02-21T18:15:17.907Z,9.60
2019-02-21T18:20:16.361Z,9.10
2019-02-21T18:22:45.738Z,9.50
2019-02-21T18:27:48.765Z,9.10
2019-02-21T18:35:17.659Z,8.90
2019-02-21T18:37:47.817Z,8.70
2019-02-21T18:40:28.593Z,9.00
2019-02-21T18:45:25.554Z,8.80
2019-02-21T18:47:54.184Z,8.90
2019-02-21T18:53:01.834Z,9.00
2019-02-21T19:12:58.138Z,8.20
2019-02-21T19:20:26.860Z,8.30
2019-02-21T19:22:56.392Z,8.40
2019-02-21T19:25:26.203Z,8.20
2019-02-21T19:35:27.078Z,8.50
2019-02-21T19:40:33.598Z,8.20
2019-02-21T19:48:00.675Z,8.40
2019-02-21T19:53:02.093Z,8.20
2019-02-21T19:57:59.216Z,8.00
2019-02-21T20:00:30.785Z,8.00
2019-02-21T20:02:59.465Z,8.10
2019-02-21T20:05:30.301Z,8.10
2019-02-21T20:15:36.072Z,8.20
2019-02-21T20:20:34.862Z,7.90
2019-02-21T20:28:01.869Z,7.60
2019-02-21T20:30:31.773Z,8.10
2019-02-21T20:38:01.216Z,7.50
2019-02-21T20:40:29.817Z,7.50
2019-02-21T20:47:55.941Z,7.50
2019-02-21T20:52:54.896Z,7.70
2019-02-21T20:55:24.579Z,7.80
2019-02-21T21:12:46.965Z,7.90
2019-02-21T21:17:44.364Z,7.90
2019-02-21T21:22:43.774Z,7.60
2019-02-21T21:25:14.963Z,7.40
2019-02-21T21:27:43.527Z,7.70
2019-02-21T21:30:14.626Z,7.30
2019-02-21T21:42:39.156Z,7.30
2019-02-21T21:45:13.310Z,7.20
2019-02-21T21:57:37.216Z,7.30
2019-02-21T22:02:35.620Z,7.50
2019-02-21T22:10:02.259Z,7.40
2019-02-21T22:14:59.154Z,7.40
2019-02-21T22:17:27.725Z,7.30
2019-02-21T22:22:24.378Z,7.60
2019-02-21T22:27:21.140Z,7.50
2019-02-21T22:29:51.041Z,7.30
2019-02-21T22:34:47.831Z,7.60
2019-02-21T22:39:44.636Z,8.00
2019-02-21T22:49:38.150Z,7.60
2019-02-21T22:52:06.713Z,7.60
2019-02-21T22:54:35.247Z,8.00
2019-02-21T22:57:03.721Z,7.60
2019-02-21T22:59:32.261Z,7.20
2019-02-21T23:02:00.887Z,8.20
2019-02-21T23:04:32.425Z,7.70
2019-02-21T23:09:30.825Z,8.00
2019-02-21T23:11:59.266Z,8.00
2019-02-21T23:21:52.918Z,7.90
2019-02-21T23:26:49.544Z,8.10
2019-02-21T23:31:46.223Z,8.30
2019-02-21T23:34:16.380Z,8.00
2019-02-21T23:39:13.063Z,8.40
2019-02-21T23:49:06.103Z,8.40
2019-02-21T23:51:34.584Z,8.30
2019-02-21T23:56:32.188Z,8.70
